Time;durP1;ratioP1;P1;durP2;ratioP2;P2;SDS_P1;SDS_P2;PMS_P1;PMS_P2;Temp;Humidity;BMP_temperature;BMP_pressure;BME280_temperature;BME280_humidity;BME280_pressure;Samples;Min_cycle;Max_cycle;Signal;HPM_P1;HPM_P2
2022/04/18 00:00:16;;;;;;;13.38;9.57;;;;;;;;;;4437457;32;19933;-82
2022/04/18 00:02:41;;;;;;;;;;;;;;;;;;4438034;32;20376;-83
2022/04/18 00:05:07;;;;;;;11.75;8.75;;;;;;;;;;4423247;32;19941;-82
2022/04/18 00:07:32;;;;;;;;;;;;;;;;;;4437864;32;20460;-83
2022/04/18 00:09:57;;;;;;;12.43;9.52;;;;;;;;;;4437609;32;19947;-83
2022/04/18 00:12:22;;;;;;;;;;;;;;;;;;4423518;32;20064;-82
2022/04/18 00:14:48;;;;;;;12.35;9.50;;;;;;;;;;4437261;32;19952;-82
2022/04/18 00:17:13;;;;;;;;;;;;;;;;;;4437712;32;20422;-82
2022/04/18 00:19:38;;;;;;;16.08;10.20;;;;;;;;;;4437841;32;19933;-82
2022/04/18 00:22:03;;;;;;;;;;;;;;;;;;4437816;32;20346;-83
2022/04/18 00:24:28;;;;;;;17.15;10.25;;;;;;;;;;4422413;32;19956;-83
2022/04/18 00:26:54;;;;;;;;;;;;;;;;;;4438258;32;20117;-83
2022/04/18 00:29:19;;;;;;;16.00;9.73;;;;;;;;;;4437838;32;20309;-83
2022/04/18 00:31:44;;;;;;;;;;;;;;;;;;4437645;32;20021;-83
2022/04/18 00:34:09;;;;;;;17.23;10.98;;;;;;;;;;4436517;32;19977;-83
2022/04/18 00:36:35;;;;;;;;;;;;;;;;;;4428103;32;20094;-83
2022/04/18 00:39:00;;;;;;;14.48;10.70;;;;;;;;;;4434014;32;19985;-82
2022/04/18 00:41:25;;;;;;;;;;;;;;;;;;4437381;32;20141;-82
2022/04/18 00:43:50;;;;;;;19.12;9.90;;;;;;;;;;4436327;32;19941;-83
2022/04/18 00:46:15;;;;;;;;;;;;;;;;;;4436930;32;20449;-83
2022/04/18 00:48:41;;;;;;;13.98;10.65;;;;;;;;;;4422939;32;19937;-83
2022/04/18 00:51:06;;;;;;;;;;;;;;;;;;4436813;32;20125;-82
2022/04/18 00:53:31;;;;;;;15.60;10.60;;;;;;;;;;4436601;32;20007;-82
2022/04/18 00:55:57;;;;;;;;;;;;;;;;;;4436496;32;20390;-82
2022/04/18 00:58:22;;;;;;;16.77;11.52;;;;;;;;;;4422195;32;19937;-82
2022/04/18 01:00:47;;;;;;;;;;;;;;;;;;4422403;32;20117;-83
2022/04/18 01:03:12;;;;;;;14.93;11.07;;;;;;;;;;4436119;32;19985;-81
2022/04/18 01:05:37;;;;;;;;;;;;;;;;;;4436361;32;20018;-82
2022/04/18 01:08:04;;;;;;;16.25;10.77;;;;;;;;;;4436280;32;19941;-83
2022/04/18 01:10:29;;;;;;;13.05;10.05;;;;;;;;;;4436491;32;20182;-82
2022/04/18 01:12:55;;;;;;;16.13;11.63;;;;;;;;;;4435886;32;20030;-82
2022/04/18 01:15:20;;;;;;;;;;;;;;;;;;4437425;32;20049;-82
2022/04/18 01:17:45;;;;;;;15.00;10.45;;;;;;;;;;4436225;32;19959;-82
2022/04/18 01:20:10;;;;;;;;;;;;;;;;;;4436091;32;20064;-82
2022/04/18 01:22:36;;;;;;;17.23;11.25;;;;;;;;;;4441683;32;19945;-82
2022/04/18 01:30:29;;;;;;;15.65;11.55;;;;;;;;;;4435915;32;20045;-83
2022/04/18 01:32:54;;;;;;;18.60;11.80;;;;;;;;;;4435917;32;20363;-83
2022/04/18 01:35:19;;;;;;;;;;;;;;;;;;4436951;32;20053;-81
2022/04/18 01:37:45;;;;;;;17.08;11.02;;;;;;;;;;4436491;32;19967;-82
2022/04/18 01:40:10;;;;;;;;;;;;;;;;;;4436205;32;20460;-83
2022/04/18 01:42:35;;;;;;;17.20;11.98;;;;;;;;;;4421718;32;20294;-83
2022/04/18 01:45:00;;;;;;;;;;;;;;;;;;4435934;32;20056;-83
2022/04/18 01:47:26;;;;;;;21.67;11.18;;;;;;;;;;4435462;32;19940;-83
2022/04/18 01:49:51;;;;;;;;;;;;;;;;;;4436202;32;20022;-82
2022/04/18 01:52:16;;;;;;;14.87;11.57;;;;;;;;;;4435974;32;19933;-82
2022/04/18 01:54:41;;;;;;;;;;;;;;;;;;4436877;32;20355;-82
2022/04/18 01:57:06;;;;;;;20.50;11.40;;;;;;;;;;4436829;32;19984;-82
2022/04/18 01:59:31;;;;;;;;;;;;;;;;;;4422371;32;20424;-82
2022/04/18 02:01:57;;;;;;;15.00;10.43;;;;;;;;;;4435930;32;20278;-81
2022/04/18 02:04:22;;;;;;;;;;;;;;;;;;4437441;32;20030;-82
2022/04/18 02:06:47;;;;;;;13.65;10.27;;;;;;;;;;4436381;32;19965;-82
2022/04/18 02:09:12;;;;;;;;;;;;;;;;;;4435617;32;20156;-84
2022/04/18 02:11:37;;;;;;;18.42;10.95;;;;;;;;;;4437381;32;19992;-82
2022/04/18 02:14:02;;;;;;;;;;;;;;;;;;4436747;32;20501;-83
2022/04/18 02:16:28;;;;;;;21.33;11.50;;;;;;;;;;4438319;32;19933;-81
2022/04/18 02:18:54;;;;;;;13.62;10.02;;;;;;;;;;4440263;32;20129;-81
2022/04/18 02:21:19;;;;;;;;;;;;;;;;;;4439732;32;20025;-82
2022/04/18 02:23:44;;;;;;;16.67;10.85;;;;;;;;;;4438403;32;19936;-82
2022/04/18 02:26:09;;;;;;;;;;;;;;;;;;4438397;32;20049;-82
2022/04/18 02:28:35;;;;;;;14.87;9.63;;;;;;;;;;4439736;32;19972;-82
2022/04/18 02:31:00;;;;;;;;;;;;;;;;;;4439180;32;20395;-82
2022/04/18 02:33:25;;;;;;;16.52;9.57;;;;;;;;;;4438247;32;19932;-81
2022/04/18 02:35:50;;;;;;;;;;;;;;;;;;4438781;32;20430;-82
2022/04/18 02:38:16;;;;;;;13.30;9.43;;;;;;;;;;4438999;32;19989;-82
2022/04/18 02:40:42;;;;;;;;;;;;;;;;;;4440238;32;20456;-83
2022/04/18 02:43:07;;;;;;;14.98;9.70;;;;;;;;;;4437791;32;20262;-82
2022/04/18 02:45:32;;;;;;;;;;;;;;;;;;4439592;32;20030;-83
2022/04/18 02:47:58;;;;;;;12.43;8.82;;;;;;;;;;4438392;32;20298;-82
2022/04/18 02:50:23;;;;;;;;;;;;;;;;;;4438612;32;20025;-83
2022/04/18 02:52:48;;;;;;;13.25;9.00;;;;;;;;;;4437982;32;19933;-82
2022/04/18 02:55:13;;;;;;;;;;;;;;;;;;4438018;32;20026;-82
2022/04/18 02:57:39;;;;;;;13.15;9.40;;;;;;;;;;4437768;32;19937;-82
2022/04/18 03:00:05;;;;;;;12.20;9.27;;;;;;;;;;4439144;32;20136;-81
2022/04/18 03:02:30;;;;;;;;;;;;;;;;;;4440005;32;20632;-83
2022/04/18 03:04:55;;;;;;;13.13;9.20;;;;;;;;;;4438110;32;20254;-80
2022/04/18 03:07:20;;;;;;;;;;;;;;;;;;4438260;32;20599;-84
2022/04/18 03:09:46;;;;;;;12.30;8.82;;;;;;;;;;4438826;32;19937;-81
2022/04/18 03:12:11;;;;;;;;;;;;;;;;;;4438707;32;20125;-81
2022/04/18 03:14:36;;;;;;;10.60;7.53;;;;;;;;;;4440456;32;19941;-81
2022/04/18 03:17:03;;;;;;;;;;;;;;;;;;4438563;32;20026;-81
2022/04/18 03:19:28;;;;;;;12.35;7.80;;;;;;;;;;4438630;32;19933;-83
2022/04/18 03:21:53;;;;;;;15.63;8.27;;;;;;;;;;4438951;32;20117;-83
2022/04/18 03:24:19;;;;;;;11.23;7.68;;;;;;;;;;4438738;32;20498;-81
2022/04/18 03:26:45;;;;;;;;;;;;;;;;;;4439234;32;20438;-81
2022/04/18 03:29:10;;;;;;;10.65;7.95;;;;;;;;;;4438542;32;19933;-82
2022/04/18 03:31:36;;;;;;;;;;;;;;;;;;4438752;32;20021;-82
2022/04/18 03:34:01;;;;;;;9.60;6.72;;;;;;;;;;4438470;32;19972;-83
2022/04/18 03:41:54;;;;;;;12.02;7.78;;;;;;;;;;4440894;32;20063;-80
2022/04/18 03:44:19;;;;;;;9.63;7.28;;;;;;;;;;4439604;32;20100;-83
2022/04/18 03:46:44;;;;;;;;;;;;;;;;;;4438930;32;20056;-80
2022/04/18 03:49:10;;;;;;;12.82;7.28;;;;;;;;;;4440152;32;19944;-81
2022/04/18 03:51:35;;;;;;;;;;;;;;;;;;4439762;32;20091;-83
2022/04/18 03:54:00;;;;;;;11.85;7.40;;;;;;;;;;4438709;32;20392;-82
2022/04/18 03:56:25;;;;;;;;;;;;;;;;;;4438901;32;20027;-81
2022/04/18 03:58:50;;;;;;;9.13;5.95;;;;;;;;;;4438461;32;19932;-82
2022/04/18 04:01:16;;;;;;;11.17;6.40;;;;;;;;;;4438321;32;20204;-81
2022/04/18 04:03:41;;;;;;;;;;;;;;;;;;4439632;32;20128;-82
2022/04/18 04:06:06;;;;;;;9.60;6.22;;;;;;;;;;4437640;32;20294;-82
2022/04/18 04:08:32;;;;;;;;;;;;;;;;;;4438378;32;20026;-82
2022/04/18 04:10:57;;;;;;;7.40;5.35;;;;;;;;;;4439078;32;19941;-83
2022/04/18 04:13:23;;;;;;;7.30;6.35;;;;;;;;;;4436994;32;20052;-83
2022/04/18 04:15:48;;;;;;;;;;;;;;;;;;4437281;32;20151;-83
2022/04/18 04:18:13;;;;;;;10.40;6.37;;;;;;;;;;4437965;32;19944;-82
2022/04/18 04:20:38;;;;;;;;;;;;;;;;;;4438492;32;20403;-82
2022/04/18 04:23:04;;;;;;;11.00;5.95;;;;;;;;;;4436796;32;19948;-82
2022/04/18 04:25:29;;;;;;;9.40;6.10;;;;;;;;;;4436043;32;20179;-82
2022/04/18 04:27:54;;;;;;;13.38;5.50;;;;;;;;;;4436349;32;20564;-81
2022/04/18 04:30:19;;;;;;;7.18;5.40;;;;;;;;;;4436756;32;20033;-81
2022/04/18 04:32:44;;;;;;;;;;;;;;;;;;4423177;32;20044;-83
2022/04/18 04:35:10;;;;;;;13.52;5.32;;;;;;;;;;4436322;32;19933;-81
2022/04/18 04:37:35;;;;;;;;;;;;;;;;;;4436613;32;20049;-82
2022/04/18 04:40:00;;;;;;;10.32;5.07;;;;;;;;;;4435813;32;19952;-83
2022/04/18 04:42:25;;;;;;;;;;;;;;;;;;4436754;32;20327;-83
2022/04/18 04:44:50;;;;;;;9.23;4.93;;;;;;;;;;4436902;32;19933;-81
2022/04/18 04:47:16;;;;;;;;;;;;;;;;;;4437243;32;20034;-82
2022/04/18 04:49:41;;;;;;;5.75;4.28;;;;;;;;;;4421979;32;19972;-80
2022/04/18 04:52:06;;;;;;;;;;;;;;;;;;4437526;32;20159;-81
2022/04/18 04:54:31;;;;;;;15.18;5.25;;;;;;;;;;4437738;32;19999;-81
2022/04/18 04:56:56;;;;;;;;;;;;;;;;;;4436643;32;20041;-81
2022/04/18 04:59:22;;;;;;;8.13;5.20;;;;;;;;;;4437109;32;19948;-79
2022/04/18 05:01:47;;;;;;;;;;;;;;;;;;4437186;32;20044;-80
2022/04/18 05:04:12;;;;;;;8.23;5.20;;;;;;;;;;4425438;32;19992;-79
2022/04/18 05:06:37;;;;;;;;;;;;;;;;;;4439701;32;20140;-82
2022/04/18 05:09:02;;;;;;;9.27;5.65;;;;;;;;;;4437348;32;19988;-83
2022/04/18 05:11:27;;;;;;;;;;;;;;;;;;4422376;32;20030;-82
2022/04/18 05:13:53;;;;;;;9.48;5.72;;;;;;;;;;4436352;32;20303;-81
2022/04/18 05:16:18;;;;;;;;;;;;;;;;;;4438369;32;20113;-82
2022/04/18 05:18:43;;;;;;;7.68;5.07;;;;;;;;;;4437467;32;19933;-81
2022/04/18 05:21:09;;;;;;;8.10;4.63;;;;;;;;;;4436796;32;20125;-82
2022/04/18 05:23:34;;;;;;;;;;;;;;;;;;4423310;32;20140;-82
2022/04/18 05:25:59;;;;;;;7.68;4.97;;;;;;;;;;4436855;32;19963;-80
2022/04/18 05:28:24;;;;;;;8.82;4.82;;;;;;;;;;4421985;32;20466;-81
2022/04/18 05:30:51;;;;;;;;;;;;;;;;;;4436756;32;20024;-82
2022/04/18 05:33:17;;;;;;;7.55;4.65;;;;;;;;;;4435578;32;19944;-80
2022/04/18 05:35:42;;;;;;;7.45;4.85;;;;;;;;;;4435582;32;20417;-81
2022/04/18 05:38:07;;;;;;;;;;;;;;;;;;4436790;32;20084;-79
2022/04/18 05:40:32;;;;;;;6.75;5.18;;;;;;;;;;4436193;32;19980;-80
2022/04/18 05:43:00;;;;;;;7.95;5.00;;;;;;;;;;4435770;32;20121;-82
2022/04/18 05:45:25;;;;;;;6.95;4.87;;;;;;;;;;4436998;32;20041;-82
2022/04/18 05:47:51;;;;;;;8.13;5.20;;;;;;;;;;4436345;32;20406;-80
2022/04/18 05:50:16;;;;;;;;;;;;;;;;;;4438133;32;20334;-81
2022/04/18 05:52:42;;;;;;;11.43;4.80;;;;;;;;;;4438772;32;19977;-82
2022/04/18 05:55:08;;;;;;;10.95;5.18;;;;;;;;;;4438627;32;20052;-81
2022/04/18 05:57:33;;;;;;;5.78;4.80;;;;;;;;;;4439433;32;20033;-80
2022/04/18 05:59:58;;;;;;;;;;;;;;;;;;4438784;32;20410;-79
2022/04/18 06:02:23;;;;;;;9.82;4.47;;;;;;;;;;4437108;32;19937;-80
2022/04/18 06:04:48;;;;;;;7.82;5.07;;;;;;;;;;4428204;32;20481;-80
2022/04/18 06:07:13;;;;;;;;;;;;;;;;;;4434926;32;20358;-80
2022/04/18 06:09:39;;;;;;;9.07;4.35;;;;;;;;;;4424405;32;19948;-78
2022/04/18 06:12:04;;;;;;;;;;;;;;;;;;4408888;32;20558;-81
2022/04/18 06:14:29;;;;;;;5.70;4.45;;;;;;;;;;4424344;32;19993;-79
2022/04/18 06:16:54;;;;;;;;;;;;;;;;;;4424286;32;20141;-81
2022/04/18 06:19:19;;;;;;;7.78;5.20;;;;;;;;;;4438227;32;19933;-80
2022/04/18 06:21:44;;;;;;;;;;;;;;;;;;4438883;32;20129;-82
2022/04/18 06:24:10;;;;;;;5.93;4.40;;;;;;;;;;4438217;32;19964;-81
2022/04/18 06:26:35;;;;;;;6.23;4.90;;;;;;;;;;4438373;32;20499;-80
2022/04/18 06:29:00;;;;;;;;;;;;;;;;;;4439215;32;20205;-80
2022/04/18 06:31:25;;;;;;;6.63;4.27;;;;;;;;;;4424159;32;19989;-82
2022/04/18 06:33:50;;;;;;;;;;;;;;;;;;4424155;32;20486;-81
2022/04/18 06:36:15;;;;;;;8.43;4.53;;;;;;;;;;4424077;32;19937;-81
2022/04/18 06:38:41;;;;;;;9.48;4.62;;;;;;;;;;4437729;32;20038;-82
2022/04/18 06:41:08;;;;;;;;;;;;;;;;;;4440277;32;20163;-80
2022/04/18 06:43:33;;;;;;;6.37;4.70;;;;;;;;;;4439217;32;19994;-82
2022/04/18 06:45:58;;;;;;;;;;;;;;;;;;4424327;32;20101;-81
2022/04/18 06:48:23;;;;;;;5.47;3.90;;;;;;;;;;4439039;32;20351;-77
2022/04/18 06:50:48;;;;;;;;;;;;;;;;;;4440132;32;20021;-79
2022/04/18 06:53:13;;;;;;;9.15;4.00;;;;;;;;;;4437719;32;19943;-80
2022/04/18 06:58:23;;;;;;;6.10;3.92;;;;;;;;;;4424407;32;19962;-80
2022/04/18 07:00:49;;;;;;;;;;;;;;;;;;4429585;32;20025;-80
2022/04/18 07:03:14;;;;;;;5.32;3.78;;;;;;;;;;4438178;32;19989;-78
2022/04/18 07:05:39;;;;;;;;;;;;;;;;;;4437755;32;20109;-77
2022/04/18 07:08:04;;;;;;;7.62;4.62;;;;;;;;;;4437821;32;19936;-79
2022/04/18 07:10:29;;;;;;;;;;;;;;;;;;4438287;32;20048;-77
2022/04/18 07:12:55;;;;;;;7.40;4.62;;;;;;;;;;4437303;32;20255;-81
2022/04/18 07:15:20;;;;;;;;;;;;;;;;;;4437429;32;20014;-77
2022/04/18 07:17:45;;;;;;;4.75;4.05;;;;;;;;;;4437383;32;19967;-79
2022/04/18 07:20:10;;;;;;;;;;;;;;;;;;4439104;32;20052;-80
2022/04/18 07:22:39;;;;;;;6.97;4.40;;;;;;;;;;4437733;32;19947;-81
2022/04/18 07:25:04;;;;;;;20.90;6.65;;;;;;;;;;4438125;32;20053;-80
2022/04/18 07:27:29;;;;;;;;;;;;;;;;;;4424533;32;20452;-80
2022/04/18 07:29:55;;;;;;;6.35;3.97;;;;;;;;;;4437180;32;20333;-79
2022/04/18 07:32:20;;;;;;;;;;;;;;;;;;4437596;32;20142;-79
2022/04/18 07:34:47;;;;;;;11.77;4.00;;;;;;;;;;4436914;32;19947;-77
2022/04/18 07:37:12;;;;;;;6.12;3.90;;;;;;;;;;4437369;32;20452;-78
2022/04/18 07:39:37;;;;;;;;;;;;;;;;;;4437472;32;20050;-80
2022/04/18 07:42:02;;;;;;;5.12;4.37;;;;;;;;;;4437415;32;19936;-81
2022/04/18 07:44:27;;;;;;;;;;;;;;;;;;4436967;32;20371;-78
2022/04/18 07:46:52;;;;;;;6.97;4.15;;;;;;;;;;4437439;32;19937;-80
2022/04/18 07:49:18;;;;;;;;;;;;;;;;;;4437469;32;20021;-80
2022/04/18 07:51:43;;;;;;;7.62;3.92;;;;;;;;;;4436942;32;19932;-80
2022/04/18 07:54:08;;;;;;;;;;;;;;;;;;4423451;32;20034;-80
2022/04/18 07:56:34;;;;;;;5.20;3.53;;;;;;;;;;4437663;32;19970;-80
2022/04/18 07:58:59;;;;;;;;;;;;;;;;;;4437406;32;20450;-79
2022/04/18 08:01:24;;;;;;;4.32;3.47;;;;;;;;;;4423722;32;19948;-79
2022/04/18 08:03:49;;;;;;;;;;;;;;;;;;4423570;32;20124;-79
2022/04/18 08:06:16;;;;;;;4.93;3.40;;;;;;;;;;4424422;32;20345;-81
2022/04/18 08:08:41;;;;;;;5.03;3.83;;;;;;;;;;4437362;32;20058;-80
2022/04/18 08:11:11;;;;;;;9.07;4.18;;;;;;;;;;4439329;32;20023;-81
2022/04/18 08:13:40;;;;;;;6.10;3.37;;;;;;;;;;4423665;32;20092;-78
2022/04/18 08:16:06;;;;;;;4.97;3.20;;;;;;;;;;4429186;32;20471;-80
2022/04/18 08:18:31;;;;;;;5.53;3.53;;;;;;;;;;4433204;32;20089;-81
2022/04/18 08:20:56;;;;;;;;;;;;;;;;;;4423587;32;20022;-76
2022/04/18 08:23:22;;;;;;;3.90;3.45;;;;;;;;;;4437706;32;19968;-80
2022/04/18 08:25:47;;;;;;;;;;;;;;;;;;4437372;32;20112;-81
2022/04/18 08:28:13;;;;;;;8.60;4.00;;;;;;;;;;4436389;32;19952;-77
2022/04/18 08:30:38;;;;;;;;;;;;;;;;;;4431697;32;20026;-79
2022/04/18 08:33:03;;;;;;;7.22;3.85;;;;;;;;;;4432711;32;19966;-81
2022/04/18 08:35:32;;;;;;;;;;;;;;;;;;4432060;32;20192;-81
2022/04/18 08:37:57;;;;;;;7.12;3.80;;;;;;;;;;4422653;32;20327;-82
2022/04/18 08:40:22;;;;;;;5.05;3.70;;;;;;;;;;4421234;32;20072;-81
2022/04/18 08:42:47;;;;;;;;;;;;;;;;;;4421179;32;20446;-81
2022/04/18 08:45:13;;;;;;;7.43;3.60;;;;;;;;;;4422274;32;19974;-82
2022/04/18 08:53:11;;;;;;;7.07;2.92;;;;;;;;;;4422307;32;20087;-81
2022/04/18 08:55:36;;;;;;;7.93;3.17;;;;;;;;;;4421059;32;20021;-80
2022/04/18 08:58:02;;;;;;;3.95;3.12;;;;;;;;;;4421421;32;20083;-82
2022/04/18 09:00:27;;;;;;;3.80;2.83;;;;;;;;;;4426932;32;20021;-81
2022/04/18 09:02:53;;;;;;;3.80;2.93;;;;;;;;;;4426111;32;20404;-81
2022/04/18 09:05:18;;;;;;;;;;;;;;;;;;4429726;32;20124;-81
2022/04/18 09:07:44;;;;;;;13.85;3.70;;;;;;;;;;4427872;32;20327;-81
2022/04/18 09:10:11;;;;;;;5.43;2.97;;;;;;;;;;4420700;32;20442;-78
2022/04/18 09:12:39;;;;;;;4.00;2.90;;;;;;;;;;4420851;32;20029;-81
2022/04/18 09:15:07;;;;;;;5.53;3.00;;;;;;;;;;4406680;32;20026;-80
2022/04/18 09:17:33;;;;;;;3.90;2.87;;;;;;;;;;4407770;32;20452;-81
2022/04/18 09:20:16;;;;;;;4.25;2.95;;;;;;;;;;4420972;32;20025;-81
2022/04/18 09:22:46;;;;;;;5.70;3.00;;;;;;;;;;4421828;32;20080;-81
2022/04/18 09:25:12;;;;;;;3.37;2.60;;;;;;;;;;4433750;32;20061;-80
2022/04/18 09:27:37;;;;;;;5.20;3.30;;;;;;;;;;4436449;32;20071;-81
2022/04/18 09:30:03;;;;;;;;;;;;;;;;;;4436723;32;20048;-82
2022/04/18 09:32:28;;;;;;;3.95;2.83;;;;;;;;;;4423155;32;19936;-80
2022/04/18 09:34:53;;;;;;;;;;;;;;;;;;4421821;32;20143;-81
2022/04/18 09:37:23;;;;;;;5.55;3.17;;;;;;;;;;4420787;32;19988;-83
2022/04/18 09:39:52;;;;;;;3.92;3.10;;;;;;;;;;4429054;32;20056;-81
2022/04/18 09:42:19;;;;;;;4.32;3.03;;;;;;;;;;4430285;32;20431;-80
2022/04/18 09:44:45;;;;;;;6.97;3.10;;;;;;;;;;4407929;32;20344;-80
2022/04/18 09:47:17;;;;;;;4.53;3.33;;;;;;;;;;4422493;32;20053;-79
2022/04/18 09:49:42;;;;;;;5.18;3.20;;;;;;;;;;4435292;32;20378;-78
2022/04/18 09:52:12;;;;;;;5.05;3.35;;;;;;;;;;4436465;32;20446;-81
2022/04/18 09:54:49;;;;;;;6.40;2.92;;;;;;;;;;4435716;32;20055;-80
2022/04/18 09:57:19;;;;;;;4.57;3.37;;;;;;;;;;4421714;32;20088;-79
2022/04/18 09:59:45;;;;;;;4.00;3.17;;;;;;;;;;4419153;32;20029;-83
2022/04/18 10:02:12;;;;;;;10.20;3.40;;;;;;;;;;4435486;32;20052;-84
2022/04/18 10:04:37;;;;;;;4.43;3.20;;;;;;;;;;4419263;32;20048;-80
2022/04/18 10:07:04;;;;;;;3.65;2.83;;;;;;;;;;4418812;32;20022;-80
2022/04/18 10:09:29;;;;;;;7.18;3.53;;;;;;;;;;4420076;32;20026;-82
2022/04/18 10:11:54;;;;;;;5.55;3.33;;;;;;;;;;4420089;32;20022;-79
2022/04/18 10:14:20;;;;;;;5.85;2.83;;;;;;;;;;4429766;32;20021;-79
2022/04/18 10:16:45;;;;;;;4.85;3.67;;;;;;;;;;4429618;32;20340;-82
2022/04/18 10:19:37;;;;;;;4.05;3.03;;;;;;;;;;4424307;32;20400;-81
2022/04/18 10:22:13;;;;;;;6.78;3.50;;;;;;;;;;4390564;32;20057;-82
2022/04/18 10:24:45;;;;;;;6.32;3.60;;;;;;;;;;4406079;32;20412;-78
2022/04/18 10:27:16;;;;;;;5.55;3.70;;;;;;;;;;4418972;32;20029;-78
2022/04/18 10:29:49;;;;;;;4.60;3.20;;;;;;;;;;4420120;32;20500;-80
2022/04/18 10:32:18;;;;;;;8.00;4.55;;;;;;;;;;4429265;32;20030;-78
2022/04/18 10:34:48;;;;;;;5.85;3.40;;;;;;;;;;4425771;32;20097;-81
2022/04/18 10:37:15;;;;;;;6.03;3.87;;;;;;;;;;4434474;32;20052;-80
2022/04/18 10:39:40;;;;;;;4.35;3.30;;;;;;;;;;4425297;32;20107;-80
2022/04/18 10:42:21;;;;;;;6.20;3.62;;;;;;;;;;4426930;32;20042;-81
2022/04/18 10:45:02;;;;;;;5.32;3.42;;;;;;;;;;4428995;32;20086;-81
2022/04/18 10:47:48;;;;;;;8.07;4.25;;;;;;;;;;4411965;32;20022;-82
2022/04/18 10:50:18;;;;;;;6.53;3.87;;;;;;;;;;4417298;32;20026;-81
2022/04/18 10:53:03;;;;;;;6.30;3.67;;;;;;;;;;4422277;32;20475;-79
2022/04/18 10:55:31;;;;;;;5.20;3.80;;;;;;;;;;4423267;32;20029;-81
2022/04/18 10:58:13;;;;;;;6.20;4.37;;;;;;;;;;4422194;32;20045;-81
2022/04/18 11:00:46;;;;;;;6.25;2.95;;;;;;;;;;4422987;32;20083;-80
2022/04/18 11:03:11;;;;;;;4.30;2.80;;;;;;;;;;4422944;32;20113;-82
2022/04/18 11:05:39;;;;;;;6.15;3.40;;;;;;;;;;4422631;32;20029;-81
2022/04/18 11:08:23;;;;;;;6.75;2.92;;;;;;;;;;4422143;32;20037;-82
2022/04/18 11:10:48;;;;;;;4.57;3.05;;;;;;;;;;4423090;32;20056;-80
2022/04/18 11:13:14;;;;;;;5.65;3.30;;;;;;;;;;4408844;32;20096;-82
2022/04/18 11:15:39;;;;;;;5.62;3.50;;;;;;;;;;4415598;32;20125;-83
2022/04/18 11:18:08;;;;;;;8.63;3.20;;;;;;;;;;4437593;32;20040;-83
2022/04/18 11:20:35;;;;;;;5.20;3.30;;;;;;;;;;4437321;32;20045;-82
2022/04/18 11:23:19;;;;;;;4.32;2.75;;;;;;;;;;4437342;32;20409;-81
2022/04/18 11:25:51;;;;;;;7.68;2.90;;;;;;;;;;4437913;32;20072;-82
2022/04/18 11:28:17;;;;;;;5.28;3.08;;;;;;;;;;4437484;32;20120;-82
2022/04/18 11:30:42;;;;;;;4.70;3.53;;;;;;;;;;4437057;32;20370;-82
2022/04/18 11:33:08;;;;;;;4.35;3.35;;;;;;;;;;4438054;32;20022;-82
2022/04/18 11:35:34;;;;;;;4.30;2.87;;;;;;;;;;4437786;32;20041;-81
2022/04/18 11:38:05;;;;;;;6.00;3.00;;;;;;;;;;4437469;32;20074;-82
2022/04/18 11:40:34;;;;;;;3.20;2.15;;;;;;;;;;4437027;32;20423;-83
2022/04/18 11:43:00;;;;;;;4.05;2.90;;;;;;;;;;4429092;32;20155;-82
2022/04/18 11:45:26;;;;;;;7.22;2.75;;;;;;;;;;4420009;32;20435;-83
2022/04/18 11:47:51;;;;;;;4.30;2.55;;;;;;;;;;4420930;32;20061;-83
2022/04/18 11:50:21;;;;;;;4.32;2.78;;;;;;;;;;4422291;32;20026;-82
2022/04/18 11:52:47;;;;;;;6.03;2.37;;;;;;;;;;4421803;32;20022;-82
2022/04/18 11:55:17;;;;;;;5.28;2.10;;;;;;;;;;4422280;32;20095;-82
2022/04/18 11:57:43;;;;;;;4.45;2.45;;;;;;;;;;4422650;32;20034;-81
2022/04/18 12:00:10;;;;;;;3.17;2.25;;;;;;;;;;4427422;32;20403;-83
2022/04/18 12:08:05;;;;;;;3.58;2.62;;;;;;;;;;4437584;32;20064;-84
2022/04/18 12:10:35;;;;;;;4.12;2.00;;;;;;;;;;4437665;32;20060;-83
2022/04/18 12:13:04;;;;;;;5.80;3.05;;;;;;;;;;4437104;32;20116;-80
2022/04/18 12:15:30;;;;;;;2.92;2.30;;;;;;;;;;4436426;32;20370;-84
2022/04/18 12:17:56;;;;;;;5.47;2.33;;;;;;;;;;4423139;32;20025;-80
2022/04/18 12:20:23;;;;;;;3.83;2.20;;;;;;;;;;4436682;32;20443;-83
2022/04/18 12:22:53;;;;;;;3.55;2.25;;;;;;;;;;4436972;32;20038;-83
2022/04/18 12:25:21;;;;;;;3.50;2.72;;;;;;;;;;4419464;32;20442;-86
2022/04/18 12:27:46;;;;;;;5.85;2.62;;;;;;;;;;4420878;32;20034;-82
2022/04/18 12:30:12;;;;;;;5.70;2.80;;;;;;;;;;4420942;32;20113;-83
2022/04/18 12:32:38;;;;;;;7.85;3.03;;;;;;;;;;4421806;32;20022;-84
2022/04/18 12:35:04;;;;;;;3.42;2.20;;;;;;;;;;4421918;32;20362;-82
2022/04/18 12:37:30;;;;;;;3.33;2.45;;;;;;;;;;4423197;32;20079;-83
2022/04/18 12:40:11;;;;;;;5.37;2.55;;;;;;;;;;4426164;32;20065;-83
2022/04/18 12:42:37;;;;;;;5.43;3.05;;;;;;;;;;4437019;32;20044;-83
2022/04/18 12:45:02;;;;;;;3.87;2.53;;;;;;;;;;4436790;32;20407;-81
2022/04/18 12:47:30;;;;;;;3.37;2.30;;;;;;;;;;4423254;32;20038;-83
2022/04/18 12:50:05;;;;;;;3.60;2.70;;;;;;;;;;4437025;32;20022;-81
2022/04/18 12:52:31;;;;;;;3.28;2.47;;;;;;;;;;4436891;32;20018;-84
2022/04/18 12:55:05;;;;;;;6.43;2.67;;;;;;;;;;4436596;32;20102;-82
2022/04/18 12:57:31;;;;;;;3.05;2.25;;;;;;;;;;4436849;32;20029;-84
2022/04/18 13:00:07;;;;;;;6.57;3.20;;;;;;;;;;4436153;32;20074;-82
2022/04/18 13:02:32;;;;;;;4.12;3.03;;;;;;;;;;4436698;32;20065;-83
2022/04/18 13:05:00;;;;;;;5.65;2.85;;;;;;;;;;4436360;32;20022;-82
2022/04/18 13:07:26;;;;;;;2.90;2.60;;;;;;;;;;4435899;32;20338;-82
2022/04/18 13:10:03;;;;;;;2.67;2.40;;;;;;;;;;4436674;32;20491;-82
2022/04/18 13:12:31;;;;;;;7.95;4.12;;;;;;;;;;4436265;32;20419;-81
2022/04/18 13:14:59;;;;;;;5.43;3.10;;;;;;;;;;4422544;32;20029;-82
2022/04/18 13:17:24;;;;;;;5.03;3.22;;;;;;;;;;4436327;32;20048;-80
2022/04/18 13:19:49;;;;;;;4.07;2.92;;;;;;;;;;4436150;32;20097;-82
2022/04/18 13:22:15;;;;;;;3.95;3.35;;;;;;;;;;4437119;32;20021;-82
2022/04/18 13:24:40;;;;;;;3.33;2.87;;;;;;;;;;4436202;32;20045;-82
2022/04/18 13:27:05;;;;;;;4.15;3.10;;;;;;;;;;4436963;32;20147;-78
2022/04/18 13:29:30;;;;;;;4.10;3.50;;;;;;;;;;4436820;32;20026;-82
2022/04/18 13:31:56;;;;;;;4.37;3.08;;;;;;;;;;4429194;32;20462;-80
2022/04/18 13:34:22;;;;;;;3.47;3.17;;;;;;;;;;4421893;32;20065;-81
2022/04/18 13:36:47;;;;;;;5.40;2.90;;;;;;;;;;4421523;32;20084;-81
2022/04/18 13:39:13;;;;;;;4.15;2.92;;;;;;;;;;4421437;32;20102;-82
2022/04/18 13:41:40;;;;;;;6.87;3.87;;;;;;;;;;4437933;32;20150;-81
2022/04/18 13:44:05;;;;;;;6.60;4.07;;;;;;;;;;4426675;32;20037;-81
2022/04/18 13:46:31;;;;;;;5.80;3.30;;;;;;;;;;4446202;32;20044;-77
2022/04/18 13:48:57;;;;;;;5.20;3.20;;;;;;;;;;4445836;32;20030;-80
2022/04/18 13:51:23;;;;;;;4.80;3.45;;;;;;;;;;4444943;32;20053;-81
2022/04/18 13:53:48;;;;;;;5.35;3.20;;;;;;;;;;4443843;32;20029;-81
2022/04/18 13:56:14;;;;;;;4.00;2.75;;;;;;;;;;4427728;32;20017;-77
2022/04/18 13:58:39;;;;;;;4.57;3.20;;;;;;;;;;4437384;32;20072;-84
2022/04/18 14:01:04;;;;;;;5.95;3.28;;;;;;;;;;4435913;32;20022;-79
2022/04/18 14:03:30;;;;;;;5.32;3.72;;;;;;;;;;4436386;32;20030;-82
2022/04/18 14:05:59;;;;;;;5.18;3.30;;;;;;;;;;4436972;32;20021;-82
2022/04/18 14:08:25;;;;;;;7.87;3.17;;;;;;;;;;4436288;32;20056;-80
2022/04/18 14:10:50;;;;;;;5.82;3.58;;;;;;;;;;4436920;32;20030;-81
2022/04/18 14:13:16;;;;;;;5.90;3.67;;;;;;;;;;4425266;32;20018;-81
2022/04/18 14:21:10;;;;;;;4.00;2.75;;;;;;;;;;4439026;32;20045;-81
2022/04/18 14:23:35;;;;;;;6.40;3.27;;;;;;;;;;4439040;32;20331;-82
2022/04/18 14:26:00;;;;;;;6.30;3.78;;;;;;;;;;4438983;32;20117;-81
2022/04/18 14:28:25;;;;;;;4.07;3.05;;;;;;;;;;4438479;32;20056;-81
2022/04/18 14:30:51;;;;;;;5.97;3.20;;;;;;;;;;4438561;32;20017;-82
2022/04/18 14:33:16;;;;;;;4.45;3.10;;;;;;;;;;4438365;32;20118;-83
2022/04/18 14:35:41;;;;;;;4.15;3.12;;;;;;;;;;4439888;32;20069;-83
2022/04/18 14:38:10;;;;;;;7.03;3.78;;;;;;;;;;4440074;32;20026;-84
2022/04/18 14:40:35;;;;;;;4.97;3.28;;;;;;;;;;4425535;32;20064;-82
2022/04/18 14:43:01;;;;;;;5.20;3.10;;;;;;;;;;4426208;32;20026;-83
2022/04/18 14:45:26;;;;;;;3.30;3.00;;;;;;;;;;4439871;32;20044;-81
2022/04/18 14:47:51;;;;;;;3.72;3.22;;;;;;;;;;4439992;32;20065;-82
2022/04/18 14:50:17;;;;;;;3.30;3.00;;;;;;;;;;4425742;32;20161;-84
2022/04/18 14:52:42;;;;;;;5.47;3.53;;;;;;;;;;4425879;32;20101;-81
2022/04/18 14:55:08;;;;;;;6.95;3.05;;;;;;;;;;4439552;32;20048;-83
2022/04/18 14:57:33;;;;;;;4.12;2.72;;;;;;;;;;4425645;32;20055;-83
2022/04/18 15:00:00;;;;;;;5.67;3.07;;;;;;;;;;4440593;32;20052;-80
2022/04/18 15:02:25;;;;;;;3.00;2.50;;;;;;;;;;4424762;32;20130;-84
2022/04/18 15:04:51;;;;;;;8.02;3.45;;;;;;;;;;4438763;32;20082;-82
2022/04/18 15:07:16;;;;;;;5.55;2.85;;;;;;;;;;4445406;32;20089;-85
2022/04/18 15:09:41;;;;;;;3.62;2.70;;;;;;;;;;4448830;32;20084;-85
2022/04/18 15:12:09;;;;;;;7.00;2.80;;;;;;;;;;4446402;32;20098;-81
2022/04/18 15:14:35;;;;;;;7.37;3.33;;;;;;;;;;4443936;32;20074;-82
2022/04/18 15:17:01;;;;;;;5.95;3.15;;;;;;;;;;4447498;32;20095;-82
2022/04/18 15:19:26;;;;;;;4.65;3.05;;;;;;;;;;4450154;32;20025;-83
2022/04/18 15:21:52;;;;;;;5.90;2.78;;;;;;;;;;4451494;32;20098;-84
2022/04/18 15:24:17;;;;;;;3.25;2.87;;;;;;;;;;4444670;32;20070;-82
2022/04/18 15:26:42;;;;;;;6.12;3.30;;;;;;;;;;4432948;32;20143;-79
2022/04/18 15:29:07;;;;;;;5.50;3.00;;;;;;;;;;4447622;32;20006;-83
2022/04/18 15:34:16;;;;;;;3.67;2.58;;;;;;;;;;4443965;32;20052;-86